This is the latest recevied weather packets stored in our database for station/object WA2TQI. If no packets are shown the sender has not sent any weather packets the latest 1 day(s).
| Time | Temp. | Humidity | Pressure | Rain* | Wind** | Luminosity | Snow |
|---|---|---|---|---|---|---|---|
| 1778034143 | 21.11° C | 71% | 1012.1 hPa | 0 mm | - | - | - |
| 1778033841 | 21.11° C | 70% | 1011.9 hPa | 0 mm | - | - | - |
| 1778033538 | 21.11° C | 70% | 1012.1 hPa | 0 mm | - | - | - |
| 1778033234 | 21.11° C | 70% | 1012.1 hPa | 0 mm | - | - | - |
| 1778032629 | 21.67° C | 68% | 1012 hPa | 0 mm | - | - | - |
| 1778032327 | 21.67° C | 68% | 1011.8 hPa | 0 mm | - | - | - |
| 1778032024 | 21.67° C | 68% | 1011.8 hPa | 0 mm | - | - | - |
| 1778031719 | 21.67° C | 68% | 1011.7 hPa | 0 mm | - | - | - |
| 1778031418 | 21.67° C | 68% | 1011.8 hPa | 0 mm | - | - | - |
| 1778031114 | 21.67° C | 68% | 1011.8 hPa | 0 mm | - | - | - |
| 1778030205 | 21.67° C | 68% | 1011.7 hPa | 0 mm | - | - | - |
| 1778029901 | 21.67° C | 68% | 1011.6 hPa | 0 mm | - | - | - |
| 1778029600 | 21.67° C | 67% | 1011.5 hPa | 0 mm | - | - | - |
| 1778029297 | 21.67° C | 67% | 1011.5 hPa | 0 mm | - | - | - |
| 1778028690 | 21.67° C | 67% | 1011.7 hPa | 0 mm | - | - | - |
| 1778028084 | 21.67° C | 68% | 1011.5 hPa | 0 mm | - | - | - |
| 1778027780 | 22.22° C | 67% | 1011.3 hPa | 0 mm | - | - | - |
| 1778027476 | 22.22° C | 67% | 1011.3 hPa | 0 mm | - | - | - |
| 1778027172 | 22.22° C | 66% | 1011.2 hPa | 0 mm | - | - | - |
| 1778026565 | 22.78° C | 62% | 1011.1 hPa | 0 mm | - | - | - |
| 1778024445 | 24.44° C | 54% | 1010.9 hPa | 0 mm | - | - | - |
| 1778023840 | 25° C | 52% | 1010.6 hPa | 0 mm | - | - | - |
| 1778023235 | 25.56° C | 50% | 1010.4 hPa | 0 mm | - | - | - |
| 1778022024 | 26.11° C | 49% | 1010.3 hPa | 0 mm | - | - | - |
* Rain latest hour (hover to see other rain measurements)
** Current wind speed in m/s (hover to see current wind gust speed)